sensor_id;sensor_type;location;lat;lon;timestamp;temperature;humidity
40023;DHT22;25713;-35.352;149.036;2022-08-01T00:00:14;9.40;94.20
40023;DHT22;25713;-35.352;149.036;2022-08-01T00:02:46;9.50;94.20
40023;DHT22;25713;-35.352;149.036;2022-08-01T00:05:15;9.50;93.90
40023;DHT22;25713;-35.352;149.036;2022-08-01T00:07:45;9.50;93.40
40023;DHT22;25713;-35.352;149.036;2022-08-01T00:10:16;9.50;93.60
40023;DHT22;25713;-35.352;149.036;2022-08-01T00:12:46;9.60;93.40
40023;DHT22;25713;-35.352;149.036;2022-08-01T00:15:17;9.60;93.30
40023;DHT22;25713;-35.352;149.036;2022-08-01T00:17:48;9.70;92.90
40023;DHT22;25713;-35.352;149.036;2022-08-01T00:20:18;9.70;92.80
40023;DHT22;25713;-35.352;149.036;2022-08-01T00:22:48;9.80;92.90
40023;DHT22;25713;-35.352;149.036;2022-08-01T00:25:17;9.80;92.70
40023;DHT22;25713;-35.352;149.036;2022-08-01T00:27:46;9.80;92.90
40023;DHT22;25713;-35.352;149.036;2022-08-01T00:30:16;9.70;92.80
40023;DHT22;25713;-35.352;149.036;2022-08-01T00:32:47;9.60;93.00
40023;DHT22;25713;-35.352;149.036;2022-08-01T00:35:17;9.50;92.80
40023;DHT22;25713;-35.352;149.036;2022-08-01T00:37:46;9.60;93.10
40023;DHT22;25713;-35.352;149.036;2022-08-01T00:40:15;9.60;93.00
40023;DHT22;25713;-35.352;149.036;2022-08-01T00:42:45;9.70;92.90
40023;DHT22;25713;-35.352;149.036;2022-08-01T00:45:14;9.70;92.60
40023;DHT22;25713;-35.352;149.036;2022-08-01T00:47:43;9.70;92.50
40023;DHT22;25713;-35.352;149.036;2022-08-01T00:50:15;9.80;92.40
40023;DHT22;25713;-35.352;149.036;2022-08-01T00:52:45;9.80;92.60
40023;DHT22;25713;-35.352;149.036;2022-08-01T00:55:14;9.80;92.40
40023;DHT22;25713;-35.352;149.036;2022-08-01T00:57:44;9.80;91.90
40023;DHT22;25713;-35.352;149.036;2022-08-01T01:00:14;9.90;92.10
40023;DHT22;25713;-35.352;149.036;2022-08-01T01:02:45;9.90;91.70
40023;DHT22;25713;-35.352;149.036;2022-08-01T01:05:16;9.80;91.40
40023;DHT22;25713;-35.352;149.036;2022-08-01T01:07:50;9.80;91.70
40023;DHT22;25713;-35.352;149.036;2022-08-01T01:10:28;9.80;91.20
40023;DHT22;25713;-35.352;149.036;2022-08-01T01:13:04;9.90;91.00
40023;DHT22;25713;-35.352;149.036;2022-08-01T01:15:36;9.90;91.00
40023;DHT22;25713;-35.352;149.036;2022-08-01T01:18:11;9.90;90.10
40023;DHT22;25713;-35.352;149.036;2022-08-01T01:20:44;9.90;90.70
40023;DHT22;25713;-35.352;149.036;2022-08-01T01:23:27;9.90;91.00
40023;DHT22;25713;-35.352;149.036;2022-08-01T01:26:23;9.80;90.80
40023;DHT22;25713;-35.352;149.036;2022-08-01T01:29:04;9.80;90.40
40023;DHT22;25713;-35.352;149.036;2022-08-01T01:31:39;9.80;90.30
40023;DHT22;25713;-35.352;149.036;2022-08-01T01:34:11;9.80;90.40
40023;DHT22;25713;-35.352;149.036;2022-08-01T01:36:43;9.80;90.90
40023;DHT22;25713;-35.352;149.036;2022-08-01T01:39:14;9.90;90.30
40023;DHT22;25713;-35.352;149.036;2022-08-01T01:41:46;9.80;90.10
40023;DHT22;25713;-35.352;149.036;2022-08-01T01:44:18;9.90;90.60
40023;DHT22;25713;-35.352;149.036;2022-08-01T01:46:48;10.00;90.80
40023;DHT22;25713;-35.352;149.036;2022-08-01T01:49:20;10.00;90.30
40023;DHT22;25713;-35.352;149.036;2022-08-01T01:51:51;10.10;90.10
40023;DHT22;25713;-35.352;149.036;2022-08-01T01:54:23;10.10;90.30
40023;DHT22;25713;-35.352;149.036;2022-08-01T01:56:53;10.10;90.00
40023;DHT22;25713;-35.352;149.036;2022-08-01T01:59:29;10.10;89.40
40023;DHT22;25713;-35.352;149.036;2022-08-01T02:02:01;10.10;90.10
40023;DHT22;25713;-35.352;149.036;2022-08-01T02:04:32;10.10;90.40
40023;DHT22;25713;-35.352;149.036;2022-08-01T02:07:02;10.10;90.10
40023;DHT22;25713;-35.352;149.036;2022-08-01T02:09:33;10.10;90.20
40023;DHT22;25713;-35.352;149.036;2022-08-01T02:12:03;10.20;87.80
40023;DHT22;25713;-35.352;149.036;2022-08-01T02:14:36;10.10;89.50
40023;DHT22;25713;-35.352;149.036;2022-08-01T02:17:04;10.10;89.50
40023;DHT22;25713;-35.352;149.036;2022-08-01T02:19:34;10.10;89.90
40023;DHT22;25713;-35.352;149.036;2022-08-01T02:22:09;10.10;90.00
40023;DHT22;25713;-35.352;149.036;2022-08-01T02:24:42;10.20;90.10
40023;DHT22;25713;-35.352;149.036;2022-08-01T02:27:17;10.20;89.90
40023;DHT22;25713;-35.352;149.036;2022-08-01T02:29:55;10.10;89.50
40023;DHT22;25713;-35.352;149.036;2022-08-01T02:32:30;10.10;89.50
40023;DHT22;25713;-35.352;149.036;2022-08-01T02:35:01;10.10;88.70
40023;DHT22;25713;-35.352;149.036;2022-08-01T02:37:34;10.10;89.20
40023;DHT22;25713;-35.352;149.036;2022-08-01T02:40:07;10.20;88.80
40023;DHT22;25713;-35.352;149.036;2022-08-01T02:42:37;10.20;88.50
40023;DHT22;25713;-35.352;149.036;2022-08-01T02:45:12;10.20;86.50
40023;DHT22;25713;-35.352;149.036;2022-08-01T02:47:44;10.30;87.00
40023;DHT22;25713;-35.352;149.036;2022-08-01T02:50:14;10.30;85.50
40023;DHT22;25713;-35.352;149.036;2022-08-01T02:52:47;10.30;85.60
40023;DHT22;25713;-35.352;149.036;2022-08-01T02:55:16;10.40;86.10
40023;DHT22;25713;-35.352;149.036;2022-08-01T02:57:46;10.40;86.10
40023;DHT22;25713;-35.352;149.036;2022-08-01T03:00:19;10.30;85.00
40023;DHT22;25713;-35.352;149.036;2022-08-01T03:02:50;10.30;85.10
40023;DHT22;25713;-35.352;149.036;2022-08-01T03:05:21;10.30;85.90
40023;DHT22;25713;-35.352;149.036;2022-08-01T03:07:52;10.30;85.30
40023;DHT22;25713;-35.352;149.036;2022-08-01T03:10:24;10.20;86.50
40023;DHT22;25713;-35.352;149.036;2022-08-01T03:12:54;10.30;86.40
40023;DHT22;25713;-35.352;149.036;2022-08-01T03:15:28;10.20;85.50
40023;DHT22;25713;-35.352;149.036;2022-08-01T03:18:00;10.20;85.90
40023;DHT22;25713;-35.352;149.036;2022-08-01T03:20:31;10.20;85.50
40023;DHT22;25713;-35.352;149.036;2022-08-01T03:23:06;10.20;86.40
40023;DHT22;25713;-35.352;149.036;2022-08-01T03:25:39;10.20;85.90
40023;DHT22;25713;-35.352;149.036;2022-08-01T03:28:11;10.20;86.30
40023;DHT22;25713;-35.352;149.036;2022-08-01T03:30:43;10.20;86.60
40023;DHT22;25713;-35.352;149.036;2022-08-01T03:33:16;10.20;85.80
40023;DHT22;25713;-35.352;149.036;2022-08-01T03:35:45;10.20;86.00
40023;DHT22;25713;-35.352;149.036;2022-08-01T03:38:19;10.30;86.50
40023;DHT22;25713;-35.352;149.036;2022-08-01T03:40:55;10.40;84.70
40023;DHT22;25713;-35.352;149.036;2022-08-01T03:43:29;10.40;85.50
40023;DHT22;25713;-35.352;149.036;2022-08-01T03:46:05;10.40;85.30
40023;DHT22;25713;-35.352;149.036;2022-08-01T03:48:39;10.50;85.40
40023;DHT22;25713;-35.352;149.036;2022-08-01T03:51:10;10.50;84.20
40023;DHT22;25713;-35.352;149.036;2022-08-01T03:53:40;10.50;82.80
40023;DHT22;25713;-35.352;149.036;2022-08-01T03:56:11;10.50;83.40
40023;DHT22;25713;-35.352;149.036;2022-08-01T03:58:43;10.50;81.90
40023;DHT22;25713;-35.352;149.036;2022-08-01T04:01:15;10.50;82.40
40023;DHT22;25713;-35.352;149.036;2022-08-01T04:03:44;10.60;83.50
40023;DHT22;25713;-35.352;149.036;2022-08-01T04:06:14;10.50;82.90
40023;DHT22;25713;-35.352;149.036;2022-08-01T04:08:44;10.50;82.90
40023;DHT22;25713;-35.352;149.036;2022-08-01T04:11:14;10.50;82.90
40023;DHT22;25713;-35.352;149.036;2022-08-01T04:13:43;10.50;82.50
40023;DHT22;25713;-35.352;149.036;2022-08-01T04:16:14;10.50;82.20
40023;DHT22;25713;-35.352;149.036;2022-08-01T04:18:44;10.50;82.30
40023;DHT22;25713;-35.352;149.036;2022-08-01T04:21:14;10.50;82.00
40023;DHT22;25713;-35.352;149.036;2022-08-01T04:23:45;10.40;80.20
40023;DHT22;25713;-35.352;149.036;2022-08-01T04:26:17;10.40;80.80
40023;DHT22;25713;-35.352;149.036;2022-08-01T04:28:48;10.40;81.00
40023;DHT22;25713;-35.352;149.036;2022-08-01T04:31:22;10.30;82.00
40023;DHT22;25713;-35.352;149.036;2022-08-01T04:33:54;10.30;82.00
40023;DHT22;25713;-35.352;149.036;2022-08-01T04:36:25;10.30;82.60
40023;DHT22;25713;-35.352;149.036;2022-08-01T04:38:59;10.30;81.40
40023;DHT22;25713;-35.352;149.036;2022-08-01T04:41:31;10.40;83.30
40023;DHT22;25713;-35.352;149.036;2022-08-01T04:44:01;10.40;82.70
40023;DHT22;25713;-35.352;149.036;2022-08-01T04:46:33;10.40;82.10
40023;DHT22;25713;-35.352;149.036;2022-08-01T04:49:03;10.50;82.40
40023;DHT22;25713;-35.352;149.036;2022-08-01T04:51:34;10.50;82.60
40023;DHT22;25713;-35.352;149.036;2022-08-01T04:54:04;10.50;81.60
40023;DHT22;25713;-35.352;149.036;2022-08-01T04:56:33;10.40;81.40
40023;DHT22;25713;-35.352;149.036;2022-08-01T04:59:03;10.40;81.90
40023;DHT22;25713;-35.352;149.036;2022-08-01T05:01:34;10.40;82.10
40023;DHT22;25713;-35.352;149.036;2022-08-01T05:04:07;10.40;82.10
40023;DHT22;25713;-35.352;149.036;2022-08-01T05:06:37;10.40;81.80
40023;DHT22;25713;-35.352;149.036;2022-08-01T05:09:06;10.30;80.50
40023;DHT22;25713;-35.352;149.036;2022-08-01T05:11:36;10.30;80.50
40023;DHT22;25713;-35.352;149.036;2022-08-01T05:14:05;10.40;81.70
40023;DHT22;25713;-35.352;149.036;2022-08-01T05:16:37;10.50;81.70
40023;DHT22;25713;-35.352;149.036;2022-08-01T05:19:06;10.50;80.60
40023;DHT22;25713;-35.352;149.036;2022-08-01T05:21:35;10.50;80.30
40023;DHT22;25713;-35.352;149.036;2022-08-01T05:24:05;10.60;80.00
40023;DHT22;25713;-35.352;149.036;2022-08-01T05:26:35;10.60;80.10
40023;DHT22;25713;-35.352;149.036;2022-08-01T05:29:04;10.60;80.60
40023;DHT22;25713;-35.352;149.036;2022-08-01T05:31:36;10.60;79.80
40023;DHT22;25713;-35.352;149.036;2022-08-01T05:34:05;10.50;79.20
40023;DHT22;25713;-35.352;149.036;2022-08-01T05:36:35;10.50;79.20
40023;DHT22;25713;-35.352;149.036;2022-08-01T05:39:04;10.50;79.20
40023;DHT22;25713;-35.352;149.036;2022-08-01T05:41:33;10.40;78.90
40023;DHT22;25713;-35.352;149.036;2022-08-01T05:44:04;10.50;80.00
40023;DHT22;25713;-35.352;149.036;2022-08-01T05:46:36;10.40;80.90
40023;DHT22;25713;-35.352;149.036;2022-08-01T05:49:06;10.40;80.30
40023;DHT22;25713;-35.352;149.036;2022-08-01T05:51:35;10.50;79.60
40023;DHT22;25713;-35.352;149.036;2022-08-01T05:54:05;10.50;79.70
40023;DHT22;25713;-35.352;149.036;2022-08-01T05:56:34;10.50;79.40
40023;DHT22;25713;-35.352;149.036;2022-08-01T05:59:04;10.50;78.50
40023;DHT22;25713;-35.352;149.036;2022-08-01T06:01:33;10.50;78.30
40023;DHT22;25713;-35.352;149.036;2022-08-01T06:04:05;10.50;78.80
40023;DHT22;25713;-35.352;149.036;2022-08-01T06:06:34;10.40;79.40
40023;DHT22;25713;-35.352;149.036;2022-08-01T06:09:04;10.50;80.90
40023;DHT22;25713;-35.352;149.036;2022-08-01T06:11:33;10.50;80.80
40023;DHT22;25713;-35.352;149.036;2022-08-01T06:14:02;10.50;80.10
40023;DHT22;25713;-35.352;149.036;2022-08-01T06:16:32;10.50;80.50
40023;DHT22;25713;-35.352;149.036;2022-08-01T06:19:03;10.50;79.00
40023;DHT22;25713;-35.352;149.036;2022-08-01T06:21:33;10.50;80.40
40023;DHT22;25713;-35.352;149.036;2022-08-01T06:24:02;10.50;80.60
40023;DHT22;25713;-35.352;149.036;2022-08-01T06:26:32;10.50;80.10
40023;DHT22;25713;-35.352;149.036;2022-08-01T06:29:01;10.50;80.00
40023;DHT22;25713;-35.352;149.036;2022-08-01T06:31:31;10.40;80.70
40023;DHT22;25713;-35.352;149.036;2022-08-01T06:34:00;10.40;80.50
40023;DHT22;25713;-35.352;149.036;2022-08-01T06:36:31;10.40;81.10
40023;DHT22;25713;-35.352;149.036;2022-08-01T06:39:01;10.40;80.90
40023;DHT22;25713;-35.352;149.036;2022-08-01T06:41:30;10.40;81.70
40023;DHT22;25713;-35.352;149.036;2022-08-01T06:44:00;10.40;81.50
40023;DHT22;25713;-35.352;149.036;2022-08-01T06:46:29;10.40;81.80
40023;DHT22;25713;-35.352;149.036;2022-08-01T06:48:59;10.30;82.00
40023;DHT22;25713;-35.352;149.036;2022-08-01T06:51:30;10.40;82.20
40023;DHT22;25713;-35.352;149.036;2022-08-01T06:54:00;10.30;81.90
40023;DHT22;25713;-35.352;149.036;2022-08-01T06:56:29;10.30;81.60
40023;DHT22;25713;-35.352;149.036;2022-08-01T06:58:59;10.20;81.00
40023;DHT22;25713;-35.352;149.036;2022-08-01T07:01:28;10.20;81.80
40023;DHT22;25713;-35.352;149.036;2022-08-01T07:03:58;10.20;82.20
40023;DHT22;25713;-35.352;149.036;2022-08-01T07:06:27;10.10;82.60
40023;DHT22;25713;-35.352;149.036;2022-08-01T07:08:59;10.10;83.30
40023;DHT22;25713;-35.352;149.036;2022-08-01T07:11:28;10.10;83.90
40023;DHT22;25713;-35.352;149.036;2022-08-01T07:13:58;10.10;83.40
40023;DHT22;25713;-35.352;149.036;2022-08-01T07:16:27;10.10;83.80
40023;DHT22;25713;-35.352;149.036;2022-08-01T07:18:56;10.00;87.10
40023;DHT22;25713;-35.352;149.036;2022-08-01T07:21:26;10.00;86.10
40023;DHT22;25713;-35.352;149.036;2022-08-01T07:23:55;10.00;85.60
40023;DHT22;25713;-35.352;149.036;2022-08-01T07:26:26;10.00;85.90
40023;DHT22;25713;-35.352;149.036;2022-08-01T07:28:55;9.90;85.30
40023;DHT22;25713;-35.352;149.036;2022-08-01T07:31:25;9.90;84.80
40023;DHT22;25713;-35.352;149.036;2022-08-01T07:33:54;9.90;84.40
40023;DHT22;25713;-35.352;149.036;2022-08-01T07:36:24;9.90;83.40
40023;DHT22;25713;-35.352;149.036;2022-08-01T07:38:53;9.90;84.90
40023;DHT22;25713;-35.352;149.036;2022-08-01T07:41:24;10.00;84.60
40023;DHT22;25713;-35.352;149.036;2022-08-01T07:43:54;10.00;84.60
40023;DHT22;25713;-35.352;149.036;2022-08-01T07:46:23;9.90;84.40
40023;DHT22;25713;-35.352;149.036;2022-08-01T07:48:52;9.90;83.70
40023;DHT22;25713;-35.352;149.036;2022-08-01T07:51:22;10.00;85.40
40023;DHT22;25713;-35.352;149.036;2022-08-01T07:53:51;10.00;87.20
40023;DHT22;25713;-35.352;149.036;2022-08-01T07:56:21;10.00;85.10
40023;DHT22;25713;-35.352;149.036;2022-08-01T07:58:52;10.00;84.20
40023;DHT22;25713;-35.352;149.036;2022-08-01T08:01:22;9.90;85.20
40023;DHT22;25713;-35.352;149.036;2022-08-01T08:03:52;9.90;85.30
40023;DHT22;25713;-35.352;149.036;2022-08-01T08:06:21;9.90;87.10
40023;DHT22;25713;-35.352;149.036;2022-08-01T08:08:50;9.90;86.80
40023;DHT22;25713;-35.352;149.036;2022-08-01T08:11:20;9.90;87.30
40023;DHT22;25713;-35.352;149.036;2022-08-01T08:13:51;9.90;86.90
40023;DHT22;25713;-35.352;149.036;2022-08-01T08:16:21;9.80;86.70
40023;DHT22;25713;-35.352;149.036;2022-08-01T08:18:50;9.90;85.80
40023;DHT22;25713;-35.352;149.036;2022-08-01T08:21:19;9.90;88.30
40023;DHT22;25713;-35.352;149.036;2022-08-01T08:23:49;9.90;87.30
40023;DHT22;25713;-35.352;149.036;2022-08-01T08:26:18;9.90;85.80
40023;DHT22;25713;-35.352;149.036;2022-08-01T08:28:47;9.80;85.90
40023;DHT22;25713;-35.352;149.036;2022-08-01T08:31:19;9.90;87.20
40023;DHT22;25713;-35.352;149.036;2022-08-01T08:33:48;9.80;85.30
40023;DHT22;25713;-35.352;149.036;2022-08-01T08:36:17;9.80;86.60
40023;DHT22;25713;-35.352;149.036;2022-08-01T08:38:47;9.80;89.10
40023;DHT22;25713;-35.352;149.036;2022-08-01T08:41:16;9.80;88.10
40023;DHT22;25713;-35.352;149.036;2022-08-01T08:43:46;9.80;89.30
40023;DHT22;25713;-35.352;149.036;2022-08-01T08:46:17;9.90;88.40
40023;DHT22;25713;-35.352;149.036;2022-08-01T08:48:48;9.80;87.90
40023;DHT22;25713;-35.352;149.036;2022-08-01T08:51:19;9.80;86.90
40023;DHT22;25713;-35.352;149.036;2022-08-01T08:53:48;9.80;87.50
40023;DHT22;25713;-35.352;149.036;2022-08-01T08:56:18;9.70;87.70
40023;DHT22;25713;-35.352;149.036;2022-08-01T08:58:48;9.70;88.30
40023;DHT22;25713;-35.352;149.036;2022-08-01T09:01:21;9.70;90.10
40023;DHT22;25713;-35.352;149.036;2022-08-01T09:03:50;9.70;89.30
40023;DHT22;25713;-35.352;149.036;2022-08-01T09:06:20;9.70;90.00
40023;DHT22;25713;-35.352;149.036;2022-08-01T09:08:49;9.70;87.40
40023;DHT22;25713;-35.352;149.036;2022-08-01T09:11:18;9.80;88.00
40023;DHT22;25713;-35.352;149.036;2022-08-01T09:14:04;9.80;90.00
40023;DHT22;25713;-35.352;149.036;2022-08-01T09:16:36;9.80;90.30
40023;DHT22;25713;-35.352;149.036;2022-08-01T09:19:11;9.90;89.80
40023;DHT22;25713;-35.352;149.036;2022-08-01T09:21:54;9.80;90.30
40023;DHT22;25713;-35.352;149.036;2022-08-01T09:24:25;9.90;89.20
40023;DHT22;25713;-35.352;149.036;2022-08-01T09:26:56;9.90;90.30
40023;DHT22;25713;-35.352;149.036;2022-08-01T09:29:30;9.90;89.30
40023;DHT22;25713;-35.352;149.036;2022-08-01T09:32:06;9.90;90.30
40023;DHT22;25713;-35.352;149.036;2022-08-01T09:34:35;9.90;89.20
40023;DHT22;25713;-35.352;149.036;2022-08-01T09:37:05;9.90;90.00
40023;DHT22;25713;-35.352;149.036;2022-08-01T09:39:35;9.90;89.40
40023;DHT22;25713;-35.352;149.036;2022-08-01T09:42:19;9.90;88.10
40023;DHT22;25713;-35.352;149.036;2022-08-01T09:44:49;9.90;89.60
40023;DHT22;25713;-35.352;149.036;2022-08-01T09:47:21;9.90;90.20
40023;DHT22;25713;-35.352;149.036;2022-08-01T09:49:55;9.90;90.40
40023;DHT22;25713;-35.352;149.036;2022-08-01T09:52:26;9.90;89.80
40023;DHT22;25713;-35.352;149.036;2022-08-01T09:54:56;9.90;89.10
40023;DHT22;25713;-35.352;149.036;2022-08-01T09:57:27;9.90;90.10
40023;DHT22;25713;-35.352;149.036;2022-08-01T09:59:57;9.90;89.40
40023;DHT22;25713;-35.352;149.036;2022-08-01T10:02:33;10.00;89.80
40023;DHT22;25713;-35.352;149.036;2022-08-01T10:05:04;10.00;88.80
40023;DHT22;25713;-35.352;149.036;2022-08-01T10:07:34;9.90;88.90
40023;DHT22;25713;-35.352;149.036;2022-08-01T10:10:11;10.00;90.10
40023;DHT22;25713;-35.352;149.036;2022-08-01T10:12:42;9.90;90.50
40023;DHT22;25713;-35.352;149.036;2022-08-01T10:15:15;9.90;88.80
40023;DHT22;25713;-35.352;149.036;2022-08-01T10:17:46;9.90;90.30
40023;DHT22;25713;-35.352;149.036;2022-08-01T10:20:15;9.80;87.20
40023;DHT22;25713;-35.352;149.036;2022-08-01T10:22:45;9.70;88.70
40023;DHT22;25713;-35.352;149.036;2022-08-01T10:25:16;9.60;89.20
40023;DHT22;25713;-35.352;149.036;2022-08-01T10:27:49;9.60;90.40
40023;DHT22;25713;-35.352;149.036;2022-08-01T10:30:19;9.70;90.10
40023;DHT22;25713;-35.352;149.036;2022-08-01T10:32:51;9.70;90.30
40023;DHT22;25713;-35.352;149.036;2022-08-01T10:35:20;9.60;88.90
40023;DHT22;25713;-35.352;149.036;2022-08-01T10:37:49;9.50;89.20
40023;DHT22;25713;-35.352;149.036;2022-08-01T10:40:19;9.50;89.90
40023;DHT22;25713;-35.352;149.036;2022-08-01T10:42:49;9.60;90.10
40023;DHT22;25713;-35.352;149.036;2022-08-01T10:45:18;9.70;89.50
40023;DHT22;25713;-35.352;149.036;2022-08-01T10:47:55;9.70;90.40
40023;DHT22;25713;-35.352;149.036;2022-08-01T10:50:31;9.60;90.70
40023;DHT22;25713;-35.352;149.036;2022-08-01T10:53:15;9.60;90.00
40023;DHT22;25713;-35.352;149.036;2022-08-01T10:55:52;9.60;91.00
40023;DHT22;25713;-35.352;149.036;2022-08-01T10:58:22;9.60;91.50
40023;DHT22;25713;-35.352;149.036;2022-08-01T11:01:21;9.60;90.10
40023;DHT22;25713;-35.352;149.036;2022-08-01T11:04:03;9.50;90.50
40023;DHT22;25713;-35.352;149.036;2022-08-01T11:06:52;9.40;89.60
40023;DHT22;25713;-35.352;149.036;2022-08-01T11:09:37;9.50;91.20
40023;DHT22;25713;-35.352;149.036;2022-08-01T11:12:09;9.50;91.70
40023;DHT22;25713;-35.352;149.036;2022-08-01T11:17:45;9.60;90.60
40023;DHT22;25713;-35.352;149.036;2022-08-01T11:20:17;9.50;90.50
40023;DHT22;25713;-35.352;149.036;2022-08-01T11:26:21;9.50;91.00
40023;DHT22;25713;-35.352;149.036;2022-08-01T11:29:12;9.60;90.70
40023;DHT22;25713;-35.352;149.036;2022-08-01T11:31:41;9.50;90.70
40023;DHT22;25713;-35.352;149.036;2022-08-01T11:34:11;9.50;90.80
40023;DHT22;25713;-35.352;149.036;2022-08-01T11:36:42;9.50;90.50
40023;DHT22;25713;-35.352;149.036;2022-08-01T11:39:14;9.40;90.80
40023;DHT22;25713;-35.352;149.036;2022-08-01T11:41:45;9.40;90.60
40023;DHT22;25713;-35.352;149.036;2022-08-01T11:44:17;9.50;91.60
40023;DHT22;25713;-35.352;149.036;2022-08-01T11:47:04;9.40;90.90
40023;DHT22;25713;-35.352;149.036;2022-08-01T11:49:44;9.40;90.70
40023;DHT22;25713;-35.352;149.036;2022-08-01T11:52:17;9.40;90.00
40023;DHT22;25713;-35.352;149.036;2022-08-01T11:54:46;9.40;90.60
40023;DHT22;25713;-35.352;149.036;2022-08-01T11:57:18;9.40;91.50
40023;DHT22;25713;-35.352;149.036;2022-08-01T11:59:50;9.40;90.90
40023;DHT22;25713;-35.352;149.036;2022-08-01T12:02:20;9.40;90.80
40023;DHT22;25713;-35.352;149.036;2022-08-01T12:04:52;9.40;90.70
40023;DHT22;25713;-35.352;149.036;2022-08-01T12:07:25;9.30;90.70
40023;DHT22;25713;-35.352;149.036;2022-08-01T12:10:02;9.30;90.10
40023;DHT22;25713;-35.352;149.036;2022-08-01T12:12:33;9.20;91.40
40023;DHT22;25713;-35.352;149.036;2022-08-01T12:15:05;9.30;91.30
40023;DHT22;25713;-35.352;149.036;2022-08-01T12:17:36;9.20;91.10
40023;DHT22;25713;-35.352;149.036;2022-08-01T12:20:08;9.30;91.40
40023;DHT22;25713;-35.352;149.036;2022-08-01T12:22:40;9.30;91.00
40023;DHT22;25713;-35.352;149.036;2022-08-01T12:25:11;9.20;91.50
40023;DHT22;25713;-35.352;149.036;2022-08-01T12:27:42;9.30;90.90
40023;DHT22;25713;-35.352;149.036;2022-08-01T12:30:12;9.20;90.00
40023;DHT22;25713;-35.352;149.036;2022-08-01T12:32:43;9.20;90.70
40023;DHT22;25713;-35.352;149.036;2022-08-01T12:35:14;9.20;91.00
40023;DHT22;25713;-35.352;149.036;2022-08-01T12:37:47;9.10;90.60
40023;DHT22;25713;-35.352;149.036;2022-08-01T12:40:18;9.20;91.40
40023;DHT22;25713;-35.352;149.036;2022-08-01T12:42:49;9.20;91.20
40023;DHT22;25713;-35.352;149.036;2022-08-01T12:45:20;9.30;91.10
40023;DHT22;25713;-35.352;149.036;2022-08-01T12:47:51;9.20;91.60
40023;DHT22;25713;-35.352;149.036;2022-08-01T12:50:22;9.30;91.50
40023;DHT22;25713;-35.352;149.036;2022-08-01T12:52:54;9.40;90.90
40023;DHT22;25713;-35.352;149.036;2022-08-01T12:55:24;9.30;91.10
40023;DHT22;25713;-35.352;149.036;2022-08-01T12:58:05;9.30;91.60
40023;DHT22;25713;-35.352;149.036;2022-08-01T13:00:36;9.30;91.30
40023;DHT22;25713;-35.352;149.036;2022-08-01T13:03:07;9.30;90.70
40023;DHT22;25713;-35.352;149.036;2022-08-01T13:05:44;9.30;91.20
40023;DHT22;25713;-35.352;149.036;2022-08-01T13:08:17;9.30;91.50
40023;DHT22;25713;-35.352;149.036;2022-08-01T13:10:47;9.40;90.40
40023;DHT22;25713;-35.352;149.036;2022-08-01T13:13:17;9.40;91.50
40023;DHT22;25713;-35.352;149.036;2022-08-01T13:15:56;9.40;91.60
40023;DHT22;25713;-35.352;149.036;2022-08-01T13:18:31;9.30;91.00
40023;DHT22;25713;-35.352;149.036;2022-08-01T13:21:11;9.30;91.50
40023;DHT22;25713;-35.352;149.036;2022-08-01T13:26:42;9.20;91.30
40023;DHT22;25713;-35.352;149.036;2022-08-01T13:29:13;9.10;90.70
40023;DHT22;25713;-35.352;149.036;2022-08-01T13:31:43;9.20;92.10
40023;DHT22;25713;-35.352;149.036;2022-08-01T13:34:13;9.20;91.30
40023;DHT22;25713;-35.352;149.036;2022-08-01T13:36:42;9.30;92.80
40023;DHT22;25713;-35.352;149.036;2022-08-01T13:39:13;9.30;91.30
40023;DHT22;25713;-35.352;149.036;2022-08-01T13:41:43;9.30;91.70
40023;DHT22;25713;-35.352;149.036;2022-08-01T13:44:13;9.30;91.20
40023;DHT22;25713;-35.352;149.036;2022-08-01T13:46:42;9.20;90.60
40023;DHT22;25713;-35.352;149.036;2022-08-01T13:49:12;9.20;91.40
40023;DHT22;25713;-35.352;149.036;2022-08-01T13:51:41;9.20;91.70
40023;DHT22;25713;-35.352;149.036;2022-08-01T13:54:13;9.20;91.50
40023;DHT22;25713;-35.352;149.036;2022-08-01T13:56:42;9.20;91.60
40023;DHT22;25713;-35.352;149.036;2022-08-01T13:59:12;9.20;91.20
40023;DHT22;25713;-35.352;149.036;2022-08-01T14:01:41;9.20;90.70
40023;DHT22;25713;-35.352;149.036;2022-08-01T14:04:11;9.20;91.60
40023;DHT22;25713;-35.352;149.036;2022-08-01T14:06:40;9.10;91.00
40023;DHT22;25713;-35.352;149.036;2022-08-01T14:09:12;9.20;91.60
40023;DHT22;25713;-35.352;149.036;2022-08-01T14:11:41;9.20;91.20
40023;DHT22;25713;-35.352;149.036;2022-08-01T14:14:11;9.20;90.80
40023;DHT22;25713;-35.352;149.036;2022-08-01T14:16:40;9.20;91.80
40023;DHT22;25713;-35.352;149.036;2022-08-01T14:19:11;9.20;91.60
40023;DHT22;25713;-35.352;149.036;2022-08-01T14:21:40;9.20;91.80
40023;DHT22;25713;-35.352;149.036;2022-08-01T14:24:12;9.20;92.00
40023;DHT22;25713;-35.352;149.036;2022-08-01T14:26:41;9.20;90.50
40023;DHT22;25713;-35.352;149.036;2022-08-01T14:29:10;9.20;91.10
40023;DHT22;25713;-35.352;149.036;2022-08-01T14:31:40;9.20;91.10
40023;DHT22;25713;-35.352;149.036;2022-08-01T14:34:09;9.30;91.60
40023;DHT22;25713;-35.352;149.036;2022-08-01T14:36:39;9.30;91.50
40023;DHT22;25713;-35.352;149.036;2022-08-01T14:39:08;9.30;91.10
40023;DHT22;25713;-35.352;149.036;2022-08-01T14:41:39;9.30;91.20
40023;DHT22;25713;-35.352;149.036;2022-08-01T14:44:09;9.40;91.70
40023;DHT22;25713;-35.352;149.036;2022-08-01T14:46:38;9.40;91.10
40023;DHT22;25713;-35.352;149.036;2022-08-01T14:49:07;9.40;91.40
40023;DHT22;25713;-35.352;149.036;2022-08-01T14:51:37;9.50;90.80
40023;DHT22;25713;-35.352;149.036;2022-08-01T15:55:34;9.30;91.60
40023;DHT22;25713;-35.352;149.036;2022-08-01T15:58:04;9.20;91.60
40023;DHT22;25713;-35.352;149.036;2022-08-01T16:00:34;9.20;91.60
40023;DHT22;25713;-35.352;149.036;2022-08-01T16:03:03;9.20;90.80
40023;DHT22;25713;-35.352;149.036;2022-08-01T16:05:33;9.30;91.80
40023;DHT22;25713;-35.352;149.036;2022-08-01T16:08:02;9.30;91.40
40023;DHT22;25713;-35.352;149.036;2022-08-01T16:10:34;9.30;91.50
40023;DHT22;25713;-35.352;149.036;2022-08-01T16:13:03;9.30;91.70
40023;DHT22;25713;-35.352;149.036;2022-08-01T16:15:33;9.40;91.30
40023;DHT22;25713;-35.352;149.036;2022-08-01T16:18:02;9.40;91.40
40023;DHT22;25713;-35.352;149.036;2022-08-01T16:20:32;9.40;91.10
40023;DHT22;25713;-35.352;149.036;2022-08-01T16:23:01;9.40;91.40
40023;DHT22;25713;-35.352;149.036;2022-08-01T16:25:32;9.50;91.20
40023;DHT22;25713;-35.352;149.036;2022-08-01T16:28:02;9.50;91.80
40023;DHT22;25713;-35.352;149.036;2022-08-01T16:30:32;9.50;91.80